Time;durP1;ratioP1;P1;durP2;ratioP2;P2;SDS_P1;SDS_P2;PMS_P1;PMS_P2;Temp;Humidity;BMP_temperature;BMP_pressure;BME280_temperature;BME280_humidity;BME280_pressure;Samples;Min_cycle;Max_cycle;Signal;HPM_P1;HPM_P2
2021/04/05 00:00:47;;;;;;;1.45;0.85;;;;;;;-0.83;99.27;100462.75;1784947;79;21503;-41
2021/04/05 00:03:15;;;;;;;0.33;0.15;;;;;;;-0.90;99.17;100449.31;1792224;80;21134;-41
2021/04/05 00:05:44;;;;;;;0.65;0.62;;;;;;;-0.96;99.07;100457.67;1796959;79;21131;-41
2021/04/05 00:08:12;;;;;;;0.10;0.10;;;;;;;-1.04;98.98;100459.18;1732069;81;21131;-42
2021/04/05 00:10:51;;;;;;;4.05;0.68;;;;;;;-1.13;98.89;100460.42;1761987;81;21127;-42
2021/04/05 00:13:24;;;;;;;0.10;0.10;;;;;;;-1.19;98.89;100454.51;1762089;81;21167;-42
2021/04/05 00:15:52;;;;;;;0.25;0.25;;;;;;;-1.25;98.92;100449.97;1797754;78;21139;-41
2021/04/05 00:18:22;;;;;;;0.45;0.45;;;;;;;-1.31;99.01;100448.41;1791481;80;21122;-41
2021/04/05 00:20:56;;;;;;;0.10;0.10;;;;;;;-1.35;99.06;100445.80;1792200;80;21454;-42
2021/04/05 00:23:25;;;;;;;0.10;0.10;;;;;;;-1.39;99.12;100440.52;1792299;79;21430;-42
2021/04/05 00:25:53;;;;;;;0.68;0.68;;;;;;;-1.42;99.13;100437.43;1761990;81;21127;-41
2021/04/05 00:28:21;;;;;;;0.62;0.62;;;;;;;-1.45;99.17;100438.66;1762630;80;21166;-43
2021/04/05 00:30:49;;;;;;;0.10;0.10;;;;;;;-1.48;99.15;100441.75;1787046;80;21461;-43
2021/04/05 00:33:18;;;;;;;0.10;0.10;;;;;;;-1.53;99.14;100442.34;1790648;78;21127;-41
2021/04/05 00:35:45;;;;;;;0.10;0.10;;;;;;;-1.58;99.09;100446.14;1794146;78;21146;-42
2021/04/05 00:38:12;;;;;;;0.10;0.10;;;;;;;-1.64;99.00;100438.06;1789750;79;21134;-42
2021/04/05 00:40:51;;;;;;;0.10;0.10;;;;;;;-1.69;99.02;100443.20;1791767;78;21166;-43
2021/04/05 00:43:19;;;;;;;0.15;0.15;;;;;;;-1.76;99.00;100435.12;1789361;80;21127;-42
2021/04/05 00:45:48;;;;;;;0.20;0.20;;;;;;;-1.81;99.06;100433.55;1789661;80;21142;-41
2021/04/05 00:48:16;;;;;;;0.53;0.53;;;;;;;-1.87;99.05;100433.84;1758955;80;21488;-41
2021/04/05 00:50:52;;;;;;;0.10;0.10;;;;;;;-1.91;99.02;100433.91;1789607;80;21134;-41
2021/04/05 00:53:27;;;;;;;0.10;0.10;;;;;;;-1.96;99.00;100438.52;1789590;80;21178;-41
2021/04/05 00:55:55;;;;;;;0.10;0.10;;;;;;;-2.00;98.96;100431.10;1790368;78;21119;-42
2021/04/05 00:58:23;;;;;;;0.00;0.00;;;;;;;-2.06;98.98;100438.05;1761317;80;21171;-41
2021/04/05 01:00:54;;;;;;;0.00;0.00;;;;;;;-2.10;98.98;100429.27;1729426;78;21676;-41
2021/04/05 01:03:23;;;;;;;0.70;0.70;;;;;;;-2.15;98.93;100425.86;1795611;78;21609;-41
2021/04/05 01:06:17;;;;;;;1.00;0.62;;;;;;;-2.21;98.96;100427.45;1789640;80;21134;-41
2021/04/05 01:08:45;;;;;;;0.10;0.10;;;;;;;-2.24;99.02;100421.16;1790938;78;21174;-43
2021/04/05 01:11:14;;;;;;;0.10;0.10;;;;;;;-2.27;99.04;100426.91;1789622;80;21124;-41
2021/04/05 01:13:42;;;;;;;1.45;1.35;;;;;;;-2.31;99.08;100429.66;1789812;80;22038;-41
2021/04/05 01:16:11;;;;;;;0.10;0.10;;;;;;;-2.33;99.12;100430.36;1791997;78;21130;-42
2021/04/05 01:18:40;;;;;;;0.10;0.10;;;;;;;-2.35;99.18;100428.38;1820324;78;21171;-42
2021/04/05 01:21:09;;;;;;;0.45;0.45;;;;;;;-2.38;99.25;100430.12;1758509;81;21594;-42
2021/04/05 01:23:37;;;;;;;3.55;0.95;;;;;;;-2.39;99.31;100430.63;1773724;80;21123;-41
2021/04/05 01:26:04;;;;;;;0.10;0.10;;;;;;;-2.39;99.37;100427.14;1782031;80;21570;-42
2021/04/05 01:28:32;;;;;;;0.15;0.15;;;;;;;-2.40;99.37;100428.14;1789187;80;21116;-40
2021/04/05 01:31:01;;;;;;;0.10;0.10;;;;;;;-2.42;99.40;100422.19;1778144;79;21131;-41
2021/04/05 01:33:40;;;;;;;0.40;0.40;;;;;;;-2.44;99.39;100417.53;1760923;81;21230;-41
2021/04/05 01:36:12;;;;;;;0.10;0.10;;;;;;;-2.46;99.48;100416.89;1763207;80;21186;-43
2021/04/05 01:38:45;;;;;;;0.10;0.10;;;;;;;-2.46;99.61;100416.89;1757919;81;21110;-43
2021/04/05 01:41:30;;;;;;;0.10;0.10;;;;;;;-2.47;99.70;100412.58;1751875;80;21238;-42
2021/04/05 01:43:58;;;;;;;0.55;0.55;;;;;;;-2.48;99.71;100411.73;1779755;80;21355;-41
2021/04/05 01:46:29;;;;;;;0.28;0.28;;;;;;;-2.48;99.73;100414.92;1752995;81;21139;-43
2021/04/05 01:49:00;;;;;;;0.20;0.20;;;;;;;-2.50;99.72;100412.94;1753168;81;21131;-44
2021/04/05 01:51:28;;;;;;;0.20;0.20;;;;;;;-2.52;99.73;100410.97;1758681;81;21125;-44
2021/04/05 01:53:56;;;;;;;0.10;0.10;;;;;;;-2.55;99.73;100410.02;1742259;81;21223;-43
2021/04/05 01:56:24;;;;;;;0.30;0.30;;;;;;;-2.58;99.70;100403.73;1758586;81;21127;-44
2021/04/05 01:58:53;;;;;;;0.10;0.10;;;;;;;-2.61;99.73;100413.80;1746676;81;21147;-44
2021/04/05 02:01:24;;;;;;;0.00;0.00;;;;;;;-2.62;99.82;100407.32;1758644;81;21094;-44
2021/04/05 02:03:52;;;;;;;1.20;1.10;;;;;;;-2.64;99.83;100410.17;1754062;80;21108;-44
2021/04/05 02:06:24;;;;;;;0.15;0.15;;;;;;;-2.66;99.86;100406.86;1730885;81;21118;-43
2021/04/05 02:08:52;;;;;;;0.10;0.10;;;;;;;-2.68;99.89;100400.88;1726511;82;21132;-45
2021/04/05 02:11:24;;;;;;;0.10;0.10;;;;;;;-2.70;99.92;100394.89;1750264;81;21107;-44
2021/04/05 02:13:55;;;;;;;0.10;0.10;;;;;;;-2.72;99.99;100395.61;1752890;80;21152;-43
2021/04/05 02:16:23;;;;;;;0.10;0.10;;;;;;;-2.73;100.00;100396.62;1740966;81;21145;-44
2021/04/05 02:18:51;;;;;;;0.20;0.20;;;;;;;-2.75;100.00;100391.97;1758765;80;21134;-44
2021/04/05 02:21:22;;;;;;;0.37;0.37;;;;;;;-2.77;100.00;100394.52;1755313;80;21140;-45
2021/04/05 02:23:50;;;;;;;0.10;0.10;;;;;;;-2.81;100.00;100396.25;1757220;81;21126;-45
2021/04/05 02:26:28;;;;;;;0.17;0.17;;;;;;;-2.83;100.00;100390.27;1750282;80;21154;-44
2021/04/05 02:28:59;;;;;;;0.10;0.10;;;;;;;-2.86;100.00;100385.82;1728417;82;21146;-44
2021/04/05 02:31:28;;;;;;;0.10;0.10;;;;;;;-2.91;100.00;100387.73;1729118;81;21129;-44
2021/04/05 02:33:58;;;;;;;0.17;0.17;;;;;;;-2.94;100.00;100389.95;1751993;81;21194;-44
2021/04/05 02:36:28;;;;;;;0.10;0.10;;;;;;;-2.97;100.00;100393.02;1737798;82;21129;-45
2021/04/05 02:39:10;;;;;;;1.02;1.00;;;;;;;-2.99;100.00;100392.38;1738646;81;21167;-43
2021/04/05 02:41:40;;;;;;;0.20;0.20;;;;;;;-3.04;100.00;100388.45;1737015;82;21504;-45
2021/04/05 02:44:09;;;;;;;0.62;0.62;;;;;;;-3.05;100.00;100381.44;1752802;81;21604;-44
2021/04/05 02:46:38;;;;;;;0.10;0.10;;;;;;;-3.08;100.00;100375.14;1729302;81;21166;-45
2021/04/05 02:49:14;;;;;;;0.95;0.90;;;;;;;-3.09;100.00;100378.84;1712575;82;21165;-43
2021/04/05 02:51:44;;;;;;;0.10;0.10;;;;;;;-3.08;100.00;100380.48;1743956;81;21608;-44
2021/04/05 02:54:11;;;;;;;0.03;0.03;;;;;;;-3.08;100.00;100373.80;1740951;80;21387;-44
2021/04/05 02:56:41;;;;;;;0.10;0.10;;;;;;;-3.07;100.00;100369.28;1758890;80;21537;-45
2021/04/05 02:59:09;;;;;;;0.20;0.20;;;;;;;-3.05;100.00;100367.24;1770357;81;21198;-45
2021/04/05 03:01:38;;;;;;;0.10;0.10;;;;;;;-3.04;100.00;100363.05;1720502;81;21137;-45
2021/04/05 03:04:07;;;;;;;0.62;0.62;;;;;;;-3.04;100.00;100363.05;1703451;82;20989;-43
2021/04/05 03:06:34;;;;;;;0.13;0.13;;;;;;;-3.05;100.00;100365.39;1727288;82;21773;-44
2021/04/05 03:09:05;;;;;;;0.78;0.78;;;;;;;-3.07;100.00;100367.42;1702220;82;21124;-44
2021/04/05 03:11:34;;;;;;;0.10;0.10;;;;;;;-3.08;100.00;100357.77;1728903;81;21139;-44
2021/04/05 03:14:04;;;;;;;0.10;0.10;;;;;;;-3.09;100.00;100361.47;1713328;82;21157;-44
2021/04/05 03:16:32;;;;;;;0.10;0.10;;;;;;;-3.10;100.00;100359.80;1775222;80;21128;-44
2021/04/05 03:19:01;;;;;;;0.10;0.10;;;;;;;-3.13;100.00;100352.17;1711817;81;21138;-43
2021/04/05 03:21:28;;;;;;;0.60;0.60;;;;;;;-3.13;100.00;100356.70;1755084;80;21162;-44
2021/04/05 03:23:59;;;;;;;0.10;0.10;;;;;;;-3.16;100.00;100349.89;1755816;80;21163;-44
2021/04/05 03:26:28;;;;;;;0.10;0.10;;;;;;;-3.18;100.00;100347.09;1753145;81;21134;-44
2021/04/05 03:28:55;;;;;;;0.10;0.10;;;;;;;-3.22;100.00;100345.29;1753187;80;21159;-45
2021/04/05 03:31:25;;;;;;;0.10;0.10;;;;;;;-3.23;100.00;100346.84;1737576;82;21473;-44
2021/04/05 03:34:03;;;;;;;0.10;0.10;;;;;;;-3.24;100.00;100351.33;1771640;79;21654;-44
2021/04/05 03:36:51;;;;;;;0.20;0.20;;;;;;;-3.26;100.00;100345.37;1754454;80;21462;-44
2021/04/05 03:39:19;;;;;;;2.80;1.98;;;;;;;-3.26;100.00;100344.04;1767963;79;21138;-44
2021/04/05 03:42:09;;;;;;;0.55;0.55;;;;;;;-3.27;100.00;100348.53;1778763;79;21138;-44
2021/04/05 03:44:45;;;;;;;0.10;0.10;;;;;;;-3.26;100.00;100356.06;1768371;79;21166;-44
2021/04/05 03:47:52;;;;;;;0.10;0.10;;;;;;;-3.24;100.00;100345.98;1764756;80;21104;-44
2021/04/05 03:52:01;;;;;;;0.15;0.15;;;;;;;-3.10;100.00;100342.42;1803198;79;27569;-42
2021/04/05 03:54:48;;;;;;;0.25;0.25;;;;;;;-3.03;100.00;100345.16;1756361;80;21112;-41
2021/04/05 03:57:19;;;;;;;0.10;0.10;;;;;;;-2.91;100.00;100341.45;1742984;82;21739;-41
2021/04/05 03:59:52;;;;;;;1.55;1.12;;;;;;;-2.82;100.00;100344.28;1726906;82;21239;-42
2021/04/05 04:02:23;;;;;;;0.20;0.20;;;;;;;-2.75;100.00;100337.13;1743204;82;21446;-41
2021/04/05 04:05:08;;;;;;;0.10;0.10;;;;;;;-2.66;100.00;100337.83;1742474;82;21533;-41
2021/04/05 04:10:14;;;;;;;0.10;0.10;;;;;;;-2.44;100.00;100335.39;1865700;76;29072;-41
2021/04/05 04:12:44;;;;;;;0.10;0.10;;;;;;;-2.41;100.00;100340.86;1788785;80;21131;-41
2021/04/05 04:15:14;;;;;;;0.10;0.10;;;;;;;-2.34;100.00;100343.06;1734668;81;21192;-41
2021/04/05 04:17:43;;;;;;;1.47;0.33;;;;;;;-2.27;100.00;100337.24;1758348;80;21206;-42
2021/04/05 04:20:15;;;;;;;0.20;0.20;;;;;;;-2.19;100.00;100339.75;1789667;80;21127;-41
2021/04/05 04:22:45;;;;;;;0.17;0.17;;;;;;;-2.09;100.00;100335.88;1787534;80;21111;-42
2021/04/05 04:25:15;;;;;;;0.10;0.10;;;;;;;-1.99;100.00;100343.85;1784613;80;21138;-41
2021/04/05 04:27:45;;;;;;;0.10;0.10;;;;;;;-1.90;100.00;100336.48;1780443;80;21162;-41
2021/04/05 04:30:32;;;;;;;1.12;1.07;;;;;;;-1.78;100.00;100337.55;1777097;80;21111;-41
2021/04/05 04:33:07;;;;;;;0.00;0.00;;;;;;;-1.65;100.00;100340.78;1775734;80;21425;-41
2021/04/05 04:35:37;;;;;;;0.10;0.10;;;;;;;-1.51;100.00;100338.95;1753335;81;21150;-41
2021/04/05 04:38:05;;;;;;;0.30;0.30;;;;;;;-1.38;100.00;100346.21;1786280;80;21170;-42
2021/04/05 04:40:34;;;;;;;2.45;0.53;;;;;;;-1.26;100.00;100350.44;1788044;80;21161;-42
2021/04/05 04:43:05;;;;;;;0.53;0.47;;;;;;;-1.13;100.00;100350.47;1754841;81;21198;-41
2021/04/05 04:45:34;;;;;;;0.17;0.17;;;;;;;-1.01;100.00;100347.48;1788014;80;21141;-42
2021/04/05 04:48:01;;;;;;;0.25;0.25;;;;;;;-0.87;100.00;100351.83;1786922;79;21201;-41
2021/04/05 04:50:29;;;;;;;0.42;0.28;;;;;;;-0.73;100.00;100350.47;1754185;81;21116;-41
2021/04/05 04:52:56;;;;;;;0.13;0.13;;;;;;;-0.57;100.00;100350.05;1753107;81;21179;-41
2021/04/05 04:55:25;;;;;;;0.10;0.10;;;;;;;-0.39;100.00;100352.08;1752883;81;21190;-41
2021/04/05 04:57:57;;;;;;;0.20;0.20;;;;;;;-0.25;100.00;100351.02;1764535;80;21466;-41
2021/04/05 05:00:26;;;;;;;0.45;0.45;;;;;;;-0.12;100.00;100350.15;1758532;80;21199;-41
2021/04/05 05:02:54;;;;;;;0.10;0.10;;;;;;;0.00;100.00;100347.64;1768962;81;21655;-42
2021/04/05 05:05:23;;;;;;;0.10;0.10;;;;;;;0.14;100.00;100338.98;1761633;81;21154;-43
2021/04/05 05:07:51;;;;;;;0.10;0.10;;;;;;;0.32;100.00;100348.53;1754287;81;21146;-42
2021/04/05 05:10:18;;;;;;;0.17;0.17;;;;;;;0.52;100.00;100344.88;1717722;82;21159;-42
2021/04/05 05:12:46;;;;;;;0.20;0.20;;;;;;;0.71;100.00;100337.74;1716982;82;21170;-42
2021/04/05 05:15:15;;;;;;;0.10;0.10;;;;;;;0.92;100.00;100341.95;1716789;82;21158;-42
2021/04/05 05:17:47;;;;;;;2.08;1.50;;;;;;;1.10;100.00;100340.66;1773609;80;21130;-42
2021/04/05 05:20:17;;;;;;;0.42;0.42;;;;;;;1.29;100.00;100339.67;1777822;80;21613;-42
2021/04/05 05:22:51;;;;;;;0.10;0.10;;;;;;;1.47;100.00;100334.02;1764114;80;21456;-43
2021/04/05 05:25:20;;;;;;;0.62;0.62;;;;;;;1.63;100.00;100332.10;1759965;80;21123;-43
2021/04/05 05:27:56;;;;;;;0.90;0.90;;;;;;;1.80;100.00;100334.19;1774960;80;21155;-41
2021/04/05 05:30:26;;;;;;;0.10;0.10;;;;;;;1.96;100.00;100332.78;1755605;80;21187;-41
2021/04/05 05:32:54;;;;;;;1.55;1.00;;;;;;;2.11;100.00;100321.08;1730620;82;21030;-41
2021/04/05 05:35:22;;;;;;;1.57;1.47;;;;;;;2.29;100.00;100326.96;1752223;81;21161;-41
2021/04/05 05:37:50;;;;;;;0.90;0.90;;;;;;;2.44;100.00;100324.67;1748789;81;21149;-41
2021/04/05 05:40:24;;;;;;;0.40;0.40;;;;;;;2.61;100.00;100315.95;1743476;81;21556;-41
2021/04/05 05:43:13;;;;;;;1.55;1.47;;;;;;;2.73;100.00;100310.06;1790138;79;21203;-42
2021/04/05 05:45:46;;;;;;;0.57;0.57;;;;;;;2.87;100.00;100308.80;1767266;79;21189;-41
2021/04/05 05:49:11;;;;;;;0.17;0.17;;;;;;;3.01;100.00;100307.51;1746946;81;21142;-41
2021/04/05 05:52:07;;;;;;;0.10;0.10;;;;;;;3.15;100.00;100305.95;1737104;81;21118;-41
2021/04/05 05:55:09;;;;;;;0.20;0.20;;;;;;;3.34;100.00;100319.65;1751425;80;21155;-41
2021/04/05 05:57:42;;;;;;;1.82;1.42;;;;;;;3.47;100.00;100313.72;1756917;79;21124;-41
2021/04/05 06:00:28;;;;;;;0.40;0.30;;;;;;;3.60;99.68;100314.81;1739509;80;21611;-41
2021/04/05 06:03:25;;;;;;;0.20;0.20;;;;;;;3.72;99.07;100307.51;1765436;79;21680;-41
2021/04/05 06:06:43;;;;;;;0.45;0.45;;;;;;;3.86;98.08;100310.25;1735875;79;21161;-42
2021/04/05 06:09:48;;;;;;;0.00;0.00;;;;;;;4.00;97.17;100305.92;1754340;80;21511;-40
2021/04/05 06:12:53;;;;;;;0.20;0.20;;;;;;;4.15;96.36;100300.81;1759170;81;21175;-42
2021/04/05 06:15:24;;;;;;;0.00;0.00;;;;;;;4.34;95.46;100306.05;1783832;80;21161;-41
2021/04/05 06:18:16;;;;;;;0.30;0.30;;;;;;;4.51;94.43;100305.02;1768613;80;21163;-41
2021/04/05 06:20:50;;;;;;;0.20;0.20;;;;;;;4.63;93.09;100297.39;1743451;81;21953;-42
2021/04/05 06:23:41;;;;;;;0.10;0.10;;;;;;;4.79;92.48;100299.81;1767270;80;21432;-41
2021/04/05 06:26:45;;;;;;;0.70;0.70;;;;;;;4.99;91.75;100298.80;1766550;81;21572;-42
2021/04/05 06:29:43;;;;;;;0.45;0.45;;;;;;;5.22;90.33;100301.89;1771432;80;21114;-41
2021/04/05 06:32:27;;;;;;;1.07;0.30;;;;;;;5.42;89.16;100300.02;1762099;80;21171;-42
2021/04/05 06:35:22;;;;;;;0.30;0.30;;;;;;;5.62;88.09;100291.89;1772530;80;21469;-42
2021/04/05 06:37:58;;;;;;;0.40;0.40;;;;;;;5.75;86.77;100292.33;1773140;80;21142;-42
2021/04/05 06:40:29;;;;;;;1.05;0.45;;;;;;;5.91;85.53;100292.52;1738252;81;21158;-42
2021/04/05 06:43:42;;;;;;;0.98;0.98;;;;;;;6.05;84.38;100295.71;1785266;80;21190;-42
2021/04/05 06:46:42;;;;;;;0.20;0.20;;;;;;;6.17;83.13;100280.93;1765011;80;21457;-43
2021/04/05 06:49:39;;;;;;;0.62;0.62;;;;;;;6.27;81.82;100285.66;1768816;80;21175;-42
2021/04/05 06:52:11;;;;;;;3.87;1.25;;;;;;;6.33;80.89;100287.87;1768151;80;21161;-41
2021/04/05 06:55:02;;;;;;;0.98;0.98;;;;;;;6.45;81.30;100283.12;1779930;78;21612;-41
2021/04/05 06:58:01;;;;;;;0.23;0.23;;;;;;;6.73;80.11;100277.97;1767309;80;21119;-43
2021/04/05 07:00:43;;;;;;;0.23;0.20;;;;;;;7.04;78.69;100275.50;1788204;79;21122;-41
2021/04/05 07:03:16;;;;;;;0.82;0.40;;;;;;;7.31;76.80;100270.80;1736508;80;21434;-43
2021/04/05 07:06:37;;;;;;;1.30;0.80;;;;;;;7.58;75.33;100266.34;1787541;79;21862;-41
2021/04/05 07:09:50;;;;;;;2.47;1.67;;;;;;;7.79;73.80;100264.52;1666729;84;21987;-42
2021/04/05 07:12:49;;;;;;;1.30;0.73;;;;;;;7.98;72.03;100257.53;1847266;77;21158;-42
2021/04/05 07:15:31;;;;;;;0.50;0.50;;;;;;;8.25;70.16;100246.45;1838517;77;21379;-41
2021/04/05 07:18:22;;;;;;;2.87;1.60;;;;;;;8.50;68.42;100251.16;1823337;78;21106;-41
2021/04/05 07:21:15;;;;;;;1.12;1.12;;;;;;;8.69;68.15;100249.28;1770832;80;21472;-42
2021/04/05 07:24:09;;;;;;;0.53;0.53;;;;;;;8.85;65.29;100247.37;1737979;80;21486;-42
2021/04/05 07:26:43;;;;;;;0.55;0.55;;;;;;;9.03;64.42;100245.47;1787950;79;21125;-44
2021/04/05 07:29:16;;;;;;;;;;;;;;;9.29;62.83;100240.78;1777504;80;21175;-42
2021/04/05 07:32:03;;;;;;;0.23;0.20;;;;;;;9.41;62.32;100238.57;1773551;80;20285;-42
2021/04/05 07:35:01;;;;;;;0.10;0.10;;;;;;;9.50;61.95;100243.48;1787505;80;21106;-42
2021/04/05 07:37:59;;;;;;;0.10;0.10;;;;;;;9.43;60.99;100237.75;1751699;80;21600;-41
2021/04/05 07:40:51;;;;;;;0.47;0.47;;;;;;;9.33;59.18;100230.16;1754951;81;21173;-41
2021/04/05 07:43:53;;;;;;;0.10;0.10;;;;;;;9.43;57.63;100226.84;1751515;81;21127;-41
2021/04/05 07:47:16;;;;;;;1.75;0.50;;;;;;;9.65;55.52;100222.97;1746775;82;21138;-42
2021/04/05 07:49:55;;;;;;;1.35;0.95;;;;;;;9.71;55.94;100222.39;1759737;80;27628;-42
2021/04/05 07:52:31;;;;;;;0.53;0.53;;;;;;;9.68;55.37;100215.58;1770719;80;21561;-42
2021/04/05 07:55:01;;;;;;;1.45;0.35;;;;;;;9.66;55.16;100213.11;1773288;80;21145;-42
2021/04/05 07:57:46;;;;;;;0.10;0.10;;;;;;;9.76;55.74;100210.89;1715338;80;21138;-42
2021/04/05 08:00:19;;;;;;;0.00;0.00;;;;;;;9.86;55.94;100204.02;1778081;79;21143;-42
2021/04/05 08:02:59;;;;;;;0.05;0.05;;;;;;;10.05;54.88;100195.20;1782565;80;21111;-42
2021/04/05 08:05:51;;;;;;;0.35;0.35;;;;;;;10.24;53.84;100193.45;1737941;81;21193;-42
2021/04/05 08:08:52;;;;;;;0.33;0.33;;;;;;;10.42;53.16;100184.34;1882257;76;22794;-43
2021/04/05 08:12:08;;;;;;;0.10;0.10;;;;;;;10.46;52.90;100185.39;1824745;78;21169;-42
2021/04/05 08:15:18;;;;;;;0.08;0.08;;;;;;;10.58;53.60;100181.73;1775013;80;21183;-42
2021/04/05 08:18:27;;;;;;;0.10;0.10;;;;;;;10.73;51.95;100177.53;1842764;77;21473;-42
2021/04/05 08:21:07;;;;;;;0.20;0.20;;;;;;;10.73;51.49;100180.79;1782063;78;21144;-41
2021/04/05 08:24:07;;;;;;;0.10;0.10;;;;;;;10.84;50.97;100173.34;1791221;78;21545;-42
2021/04/05 08:26:45;;;;;;;1.17;0.37;;;;;;;10.80;51.17;100167.61;1780987;80;21167;-42
2021/04/05 08:29:55;;;;;;;1.17;0.50;;;;;;;10.54;51.15;100165.67;1754533;79;21180;-42
2021/04/05 08:32:32;;;;;;;0.10;0.10;;;;;;;10.28;51.17;100166.41;1756832;81;21182;-42
2021/04/05 08:35:08;;;;;;;0.00;0.00;;;;;;;10.24;49.78;100167.51;1726700;79;21122;-42
2021/04/05 08:38:19;;;;;;;0.65;0.65;;;;;;;10.31;49.44;100168.56;1779576;80;21490;-41
2021/04/05 08:41:13;;;;;;;0.17;0.10;;;;;;;10.26;50.75;100163.11;1739871;80;21138;-41
2021/04/05 08:44:13;;;;;;;1.55;0.62;;;;;;;10.21;50.46;100150.86;1749319;80;21525;-41
2021/04/05 08:46:41;;;;;;;0.00;0.00;;;;;;;10.29;50.69;100151.11;1765221;80;21163;-42
2021/04/05 08:49:13;;;;;;;0.10;0.10;;;;;;;10.41;48.24;100144.45;1766037;78;21142;-42
2021/04/05 08:51:44;;;;;;;;;;;;;;;10.40;48.62;100138.18;1810939;78;21141;-42
2021/04/05 08:54:15;;;;;;;0.28;0.23;;;;;;;10.35;47.51;100137.41;1787158;78;20237;-43
2021/04/05 08:56:56;;;;;;;0.00;0.00;;;;;;;10.47;47.01;100130.48;1771472;80;21167;-42
2021/04/05 08:59:37;;;;;;;2.42;1.20;;;;;;;10.63;46.28;100126.23;1783374;80;21144;-42
2021/04/05 09:02:26;;;;;;;0.13;0.13;;;;;;;10.69;45.69;100130.56;1772639;80;21143;-41
2021/04/05 09:04:55;;;;;;;0.75;0.55;;;;;;;10.69;46.45;100120.45;1771338;80;21613;-41
2021/04/05 09:07:53;;;;;;;0.00;0.00;;;;;;;10.60;46.18;100118.06;1714218;82;21166;-43
2021/04/05 09:10:36;;;;;;;0.00;0.00;;;;;;;10.51;44.74;100115.71;1721037;81;21146;-42
2021/04/05 09:13:07;;;;;;;0.10;0.10;;;;;;;10.61;43.44;100108.78;1748780;81;21130;-42
2021/04/05 09:16:17;;;;;;;0.10;0.10;;;;;;;10.77;43.41;100106.70;1783473;80;21114;-42
2021/04/05 09:19:29;;;;;;;0.20;0.20;;;;;;;10.90;41.92;100101.09;1764389;81;21110;-43
2021/04/05 09:22:49;;;;;;;0.00;0.00;;;;;;;11.05;41.25;100094.08;1785490;80;21117;-41
2021/04/05 09:25:37;;;;;;;0.10;0.10;;;;;;;11.06;41.60;100088.89;1785927;80;21693;-50
2021/04/05 09:28:35;;;;;;;0.10;0.10;;;;;;;11.08;41.33;100084.52;1781395;80;21126;-51
2021/04/05 09:31:36;;;;;;;0.40;0.40;;;;;;;11.09;39.03;100084.20;1738284;80;21177;-51
2021/04/05 09:34:18;;;;;;;0.37;0.23;;;;;;;11.04;40.39;100073.33;1785694;78;21189;-52
2021/04/05 09:37:17;;;;;;;0.20;0.20;;;;;;;11.19;41.31;100081.90;1786209;80;21182;-51
2021/04/05 09:40:06;;;;;;;0.10;0.10;;;;;;;11.35;39.88;100070.20;1756374;81;21157;-50
2021/04/05 09:43:03;;;;;;;0.05;0.05;;;;;;;11.12;39.98;100066.40;1778582;80;21177;-50
2021/04/05 09:46:01;;;;;;;0.00;0.00;;;;;;;10.88;41.87;100067.23;1727696;82;21163;-49
2021/04/05 09:48:59;;;;;;;0.10;0.10;;;;;;;10.72;41.72;100062.47;1752539;80;21656;-50
2021/04/05 09:51:53;;;;;;;0.10;0.10;;;;;;;10.70;41.09;100059.21;1731388;81;21465;-50
2021/04/05 09:54:36;;;;;;;1.05;1.05;;;;;;;10.78;40.98;100054.22;1785031;78;21149;-51
2021/04/05 09:57:07;;;;;;;0.10;0.10;;;;;;;10.78;40.00;100047.38;1785900;80;21158;-51
2021/04/05 09:59:40;;;;;;;0.10;0.10;;;;;;;10.85;40.49;100047.86;1713706;82;21457;-51
2021/04/05 10:02:09;;;;;;;0.00;0.00;;;;;;;11.19;40.14;100046.35;1783435;80;21107;-51
2021/04/05 10:04:38;;;;;;;0.20;0.20;;;;;;;11.68;38.92;100041.02;1765096;79;21137;-50
2021/04/05 10:07:07;;;;;;;0.30;0.30;;;;;;;12.01;39.38;100035.05;1741434;80;21170;-50
2021/04/05 10:09:35;;;;;;;0.10;0.10;;;;;;;12.19;38.51;100033.94;1787424;78;21106;-49
2021/04/05 10:12:05;;;;;;;0.00;0.00;;;;;;;12.26;37.64;100029.72;1749416;79;21189;-49
2021/04/05 10:14:34;;;;;;;0.10;0.10;;;;;;;12.19;37.64;100032.03;1755359;81;21104;-49
2021/04/05 10:17:02;;;;;;;0.00;0.00;;;;;;;12.11;38.04;100023.67;1744080;81;21198;-49
2021/04/05 10:19:34;;;;;;;0.40;0.40;;;;;;;12.03;37.90;100020.50;1762252;80;21158;-50
2021/04/05 10:22:05;;;;;;;0.30;0.30;;;;;;;11.98;37.57;100020.59;1774527;80;21238;-50
2021/04/05 10:24:33;;;;;;;0.10;0.10;;;;;;;11.83;38.72;100013.97;1769955;79;21157;-50
2021/04/05 10:27:05;;;;;;;0.25;0.25;;;;;;;11.67;40.29;100017.52;1782074;80;21339;-51
2021/04/05 10:29:34;;;;;;;0.00;0.00;;;;;;;11.72;41.74;100016.59;1772089;80;21630;-51
2021/04/05 10:32:05;;;;;;;0.20;0.20;;;;;;;11.89;41.63;100015.53;1772029;80;21284;-50
2021/04/05 10:34:37;;;;;;;0.00;0.00;;;;;;;12.17;40.85;100005.48;1735221;80;21186;-51
2021/04/05 10:37:15;;;;;;;0.00;0.00;;;;;;;12.33;40.10;99999.73;1732753;82;21205;-50
2021/04/05 10:39:51;;;;;;;0.20;0.13;;;;;;;12.30;40.74;100001.71;1747034;80;21437;-50
2021/04/05 10:42:33;;;;;;;0.08;0.08;;;;;;;12.20;40.58;99989.01;1769162;80;21130;-50
2021/04/05 10:45:23;;;;;;;0.00;0.00;;;;;;;12.22;40.57;99987.59;1863305;76;22708;-50
2021/04/05 10:48:07;;;;;;;0.15;0.15;;;;;;;12.13;40.42;99985.28;1752482;81;21568;-47
2021/04/05 10:50:38;;;;;;;0.00;0.00;;;;;;;12.08;40.21;99987.31;1755071;79;21561;-48
2021/04/05 10:53:15;;;;;;;0.17;0.17;;;;;;;11.90;40.10;99987.06;1815671;78;21585;-48
2021/04/05 10:55:53;;;;;;;0.10;0.10;;;;;;;11.74;39.36;99984.27;1814585;78;21118;-48
2021/04/05 10:58:25;;;;;;;0.00;0.00;;;;;;;11.61;41.30;99983.11;1815090;79;21146;-52
2021/04/05 11:00:55;;;;;;;0.10;0.10;;;;;;;11.43;41.47;99979.28;1815331;79;21169;-48
2021/04/05 11:03:29;;;;;;;0.30;0.30;;;;;;;11.19;42.25;99971.95;1787075;78;21533;-48
2021/04/05 11:06:00;;;;;;;0.00;0.00;;;;;;;10.86;42.22;99975.70;1776535;80;21556;-48
2021/04/05 11:08:30;;;;;;;0.08;0.08;;;;;;;10.57;43.51;99979.31;1788238;78;21237;-47
2021/04/05 11:11:06;;;;;;;0.00;0.00;;;;;;;10.35;43.39;99970.82;1788215;80;21106;-49
2021/04/05 11:13:46;;;;;;;0.00;0.00;;;;;;;10.11;43.90;99971.55;1756737;78;21142;-49
2021/04/05 11:16:16;;;;;;;0.10;0.10;;;;;;;9.91;44.18;99965.73;1788412;80;21462;-50
2021/04/05 11:18:50;;;;;;;0.17;0.15;;;;;;;9.76;43.27;99959.86;1787955;78;21129;-49
2021/04/05 11:21:20;;;;;;;0.30;0.30;;;;;;;9.59;43.44;99957.54;1780195;79;21557;-49
2021/04/05 11:23:49;;;;;;;2.17;0.93;;;;;;;9.44;44.23;99958.47;1777045;80;21493;-50
2021/04/05 11:26:22;;;;;;;0.47;0.47;;;;;;;9.36;44.55;99954.98;1746821;80;21142;-50
2021/04/05 11:28:53;;;;;;;0.10;0.10;;;;;;;9.29;44.14;99950.40;1778789;80;21174;-50
2021/04/05 11:31:21;;;;;;;0.20;0.20;;;;;;;9.23;45.05;99950.98;1786349;80;21141;-50
2021/04/05 11:33:55;;;;;;;0.05;0.05;;;;;;;9.17;45.34;99947.20;1789475;80;21684;-50
2021/04/05 11:36:24;;;;;;;0.00;0.00;;;;;;;9.13;45.85;99948.88;1790313;79;21623;-50
2021/04/05 11:38:52;;;;;;;0.10;0.10;;;;;;;9.14;45.75;99947.22;1752139;80;21181;-48
2021/04/05 11:41:26;;;;;;;0.10;0.10;;;;;;;9.13;46.48;99946.97;1735789;81;21147;-49
2021/04/05 11:44:00;;;;;;;0.40;0.33;;;;;;;9.14;46.47;99943.69;1788061;78;21586;-49
2021/04/05 11:46:29;;;;;;;0.20;0.20;;;;;;;9.16;46.48;99941.50;1783177;80;21107;-50
2021/04/05 11:49:06;;;;;;;0.25;0.10;;;;;;;9.14;44.87;99940.96;1785995;80;21146;-50
2021/04/05 11:51:41;;;;;;;0.93;0.15;;;;;;;9.13;44.97;99943.44;1754773;80;21107;-49
2021/04/05 11:54:31;;;;;;;0.10;0.10;;;;;;;9.09;44.61;99936.35;1785189;79;21197;-50
2021/04/05 11:56:59;;;;;;;0.10;0.10;;;;;;;9.07;45.74;99934.45;1787343;80;21137;-48
2021/04/05 11:59:28;;;;;;;0.57;0.17;;;;;;;9.08;44.78;99932.56;1787295;80;21549;-48
2021/04/05 12:02:03;;;;;;;1.37;0.78;;;;;;;9.14;44.95;99927.33;1753457;80;21517;-49
2021/04/05 12:04:40;;;;;;;0.20;0.20;;;;;;;9.23;46.00;99923.73;1711059;81;21150;-49
2021/04/05 12:07:16;;;;;;;0.05;0.05;;;;;;;9.36;45.16;99923.63;1771015;80;21171;-50
2021/04/05 12:10:04;;;;;;;0.33;0.33;;;;;;;9.47;45.46;99919.73;1746954;80;21151;-50
2021/04/05 12:12:41;;;;;;;0.10;0.10;;;;;;;9.63;47.06;99912.79;1766417;80;21182;-49
2021/04/05 12:15:16;;;;;;;0.40;0.20;;;;;;;9.87;46.52;99906.03;1766418;81;21593;-49
2021/04/05 12:17:49;;;;;;;0.00;0.00;;;;;;;10.17;46.33;99903.53;1729232;80;21193;-48
2021/04/05 12:20:17;;;;;;;0.00;0.00;;;;;;;10.44;45.29;99899.44;1768551;80;21127;-49